createdAt,value
2019-02-10T00:00:43.256Z,100448.44
2019-02-10T00:03:11.957Z,100436.59
2019-02-10T00:05:40.488Z,100434.41
2019-02-10T00:08:09.040Z,100432.52
2019-02-10T00:10:37.556Z,100420.80
2019-02-10T00:13:25.731Z,100415.11
2019-02-10T00:15:54.746Z,100408.38
2019-02-10T00:18:23.407Z,100410.47
2019-02-10T00:20:52.241Z,100410.81
2019-02-10T00:23:20.810Z,100395.83
2019-02-10T00:25:49.408Z,100393.88
2019-02-10T00:28:18.319Z,100388.23
2019-02-10T00:30:46.840Z,100383.27
2019-02-10T00:33:15.443Z,100371.98
2019-02-10T00:35:44.072Z,100373.91
2019-02-10T00:38:12.587Z,100371.20
2019-02-10T00:40:41.236Z,100357.59
2019-02-10T00:43:09.807Z,100350.12
2019-02-10T00:45:38.422Z,100345.20
2019-02-10T00:48:06.952Z,100327.97
2019-02-10T00:50:35.463Z,100329.47
2019-02-10T00:53:04.079Z,100320.55
2019-02-10T00:55:32.668Z,100321.90
2019-02-10T00:58:01.206Z,100310.51
2019-02-10T01:00:29.821Z,100304.45
2019-02-10T01:02:58.446Z,100303.18
2019-02-10T01:05:27.254Z,100300.18
2019-02-10T01:07:55.765Z,100288.31
2019-02-10T01:10:25.726Z,100280.73
2019-02-10T01:12:54.572Z,100265.28
2019-02-10T01:15:23.221Z,100257.39
2019-02-10T01:17:51.730Z,100258.17
2019-02-10T01:20:20.349Z,100254.65
2019-02-10T01:22:49.035Z,100239.67
2019-02-10T01:25:17.624Z,100239.23
2019-02-10T01:27:46.259Z,100229.67
2019-02-10T01:30:15.969Z,100225.83
2019-02-10T01:32:44.565Z,100227.98
2019-02-10T01:35:13.527Z,100228.21
2019-02-10T01:37:42.151Z,100220.83
2019-02-10T01:40:11.622Z,100217.23
2019-02-10T01:42:40.337Z,100210.05
2019-02-10T01:45:11.491Z,100207.34
2019-02-10T01:47:40.081Z,100201.31
2019-02-10T01:50:10.759Z,100195.27
2019-02-10T01:52:39.443Z,100190.63
2019-02-10T01:55:10.593Z,100183.93
2019-02-10T01:57:39.174Z,100168.07
2019-02-10T02:00:13.300Z,100153.58
2019-02-10T02:02:41.936Z,100153.38
2019-02-10T02:05:10.638Z,100141.75
2019-02-10T02:07:39.222Z,100136.57
2019-02-10T02:10:10.966Z,100127.25
2019-02-10T02:12:39.611Z,100114.99
2019-02-10T02:15:11.181Z,100105.28
2019-02-10T02:17:39.800Z,100098.52
2019-02-10T02:20:09.988Z,100082.68
2019-02-10T02:22:38.544Z,100077.64
2019-02-10T02:25:12.067Z,100066.65
2019-02-10T02:27:40.710Z,100062.42
2019-02-10T02:30:14.424Z,100054.64
2019-02-10T02:32:43.540Z,100045.66
2019-02-10T02:35:12.141Z,100037.89
2019-02-10T02:37:40.860Z,100033.39
2019-02-10T02:40:10.956Z,100026.25
2019-02-10T02:42:39.761Z,100014.30
2019-02-10T02:45:10.394Z,100010.80
2019-02-10T02:47:39.004Z,100002.64
2019-02-10T02:50:10.258Z,100000.81
2019-02-10T02:52:39.021Z,99994.61
2019-02-10T02:55:09.643Z,99998.25
2019-02-10T02:57:38.241Z,99979.33
2019-02-10T03:00:09.175Z,99975.92
2019-02-10T03:02:37.752Z,99970.63
2019-02-10T03:05:08.667Z,99958.69
2019-02-10T03:07:37.243Z,99953.27
2019-02-10T03:10:07.561Z,99945.61
2019-02-10T03:12:39.806Z,99943.01
2019-02-10T03:15:09.156Z,99935.70
2019-02-10T03:17:37.758Z,99939.84
2019-02-10T03:20:07.915Z,99919.33
2019-02-10T03:22:36.537Z,99912.91
2019-02-10T03:25:06.720Z,99902.33
2019-02-10T03:27:35.292Z,99886.25
2019-02-10T03:30:04.322Z,99874.16
2019-02-10T03:32:32.813Z,99860.08
2019-02-10T03:35:01.345Z,99853.30
2019-02-10T03:37:29.894Z,99847.23
2019-02-10T03:39:58.398Z,99832.36
2019-02-10T03:42:26.992Z,99818.02
2019-02-10T03:44:55.554Z,99816.95
2019-02-10T03:47:24.066Z,99795.59
2019-02-10T03:49:52.629Z,99790.16
2019-02-10T03:52:21.175Z,99771.16
2019-02-10T03:54:49.721Z,99754.64
2019-02-10T03:57:18.291Z,99750.95
2019-02-10T03:59:46.870Z,99730.85
2019-02-10T04:02:15.908Z,99715.89
2019-02-10T04:04:44.412Z,99716.12
2019-02-10T04:07:13.076Z,99704.52
2019-02-10T04:09:41.615Z,99701.32
2019-02-10T04:12:10.270Z,99693.08
2019-02-10T04:14:38.922Z,99689.25
2019-02-10T04:17:08.628Z,99678.34
2019-02-10T04:19:37.220Z,99670.15
2019-02-10T04:22:05.915Z,99651.41
2019-02-10T04:24:34.351Z,99651.09
2019-02-10T04:27:02.896Z,99637.58
2019-02-10T04:29:31.425Z,99616.63
2019-02-10T04:32:00.038Z,99621.73
2019-02-10T04:34:28.587Z,99621.25
2019-02-10T04:36:57.141Z,99611.05
2019-02-10T04:39:25.566Z,99606.61
2019-02-10T04:41:54.082Z,99595.39
2019-02-10T04:44:22.616Z,99576.84
2019-02-10T04:46:51.180Z,99568.28
2019-02-10T04:49:19.899Z,99567.70
2019-02-10T04:51:48.459Z,99554.36
2019-02-10T04:54:16.994Z,99538.47
2019-02-10T04:56:45.441Z,99522.12
2019-02-10T04:59:14.071Z,99510.91
2019-02-10T05:01:42.667Z,99503.27
2019-02-10T05:04:11.189Z,99483.13
2019-02-10T05:06:39.677Z,99483.38
2019-02-10T05:09:08.285Z,99469.62
2019-02-10T05:11:36.839Z,99465.44
2019-02-10T05:14:05.442Z,99453.19
2019-02-10T05:16:34.074Z,99436.33
2019-02-10T05:19:02.630Z,99435.25
2019-02-10T05:21:31.197Z,99424.06
2019-02-10T05:24:03.659Z,99409.09
2019-02-10T05:26:29.904Z,99404.44
2019-02-10T05:28:58.386Z,99392.62
2019-02-10T05:31:27.028Z,99388.41
2019-02-10T05:33:55.540Z,99371.02
2019-02-10T05:36:24.166Z,99372.10
2019-02-10T05:38:52.676Z,99366.47
2019-02-10T05:41:21.258Z,99355.93
2019-02-10T05:43:49.761Z,99349.73
2019-02-10T05:46:18.314Z,99341.30
2019-02-10T05:48:46.829Z,99334.88
2019-02-10T05:51:15.268Z,99333.93
2019-02-10T05:53:43.794Z,99326.38
2019-02-10T05:56:12.236Z,99308.59
2019-02-10T05:58:40.859Z,99308.73
2019-02-10T06:01:34.657Z,99304.03
2019-02-10T06:04:03.316Z,99296.26
2019-02-10T06:06:31.915Z,99283.38
2019-02-10T06:09:00.352Z,99274.30
2019-02-10T06:11:28.984Z,99272.77
2019-02-10T06:13:57.454Z,99275.88
2019-02-10T06:16:26.017Z,99257.64
2019-02-10T06:18:54.494Z,99255.82
2019-02-10T06:21:23.011Z,99241.61
2019-02-10T06:23:51.567Z,99241.61
2019-02-10T06:26:20.037Z,99240.28
2019-02-10T06:28:48.611Z,99233.52
2019-02-10T06:31:17.042Z,99228.17
2019-02-10T06:33:45.536Z,99208.80
2019-02-10T06:36:14.036Z,99206.33
2019-02-10T06:38:42.471Z,99205.21
2019-02-10T06:41:11.075Z,99182.45
2019-02-10T06:43:39.561Z,99184.27
2019-02-10T06:46:08.473Z,99178.08
2019-02-10T06:48:36.939Z,99173.67
2019-02-10T06:51:05.460Z,99150.47
2019-02-10T06:53:34.806Z,99142.36
2019-02-10T06:56:03.563Z,99118.25
2019-02-10T06:58:31.992Z,99090.08
2019-02-10T07:01:05.211Z,99073.41
2019-02-10T07:03:40.760Z,99074.85
2019-02-10T07:06:10.195Z,99070.44
2019-02-10T07:08:38.785Z,99058.97
2019-02-10T07:11:07.332Z,99051.49
2019-02-10T07:13:41.439Z,99049.89
2019-02-10T07:16:38.353Z,99038.85
2019-02-10T07:19:42.590Z,99043.23
2019-02-10T07:22:43.259Z,99048.78
2019-02-10T07:25:17.836Z,99049.70
2019-02-10T07:28:04.478Z,99037.97
2019-02-10T07:30:41.870Z,99018.13
2019-02-10T07:33:13.344Z,99025.34
2019-02-10T07:35:56.700Z,99021.08
2019-02-10T07:38:38.766Z,99025.78
2019-02-10T07:41:26.901Z,99019.23
2019-02-10T07:44:13.667Z,99013.80
2019-02-10T07:47:02.773Z,99005.64
2019-02-10T07:50:07.480Z,99002.33
2019-02-10T07:52:47.531Z,98996.63
2019-02-10T07:55:40.401Z,98985.34
2019-02-10T07:58:20.836Z,98985.02
2019-02-10T08:00:57.853Z,98997.44
2019-02-10T08:03:47.963Z,98984.97
2019-02-10T08:06:46.885Z,98980.98
2019-02-10T08:09:23.988Z,98973.09
2019-02-10T08:12:04.480Z,98994.70
2019-02-10T08:14:53.974Z,98979.25
2019-02-10T08:17:45.310Z,98974.73
2019-02-10T08:20:31.688Z,98977.47
2019-02-10T08:23:06.125Z,98973.34
2019-02-10T08:25:44.057Z,98978.08
2019-02-10T08:28:24.386Z,98968.86
2019-02-10T08:30:58.597Z,98957.98
2019-02-10T08:33:30.112Z,98963.34
2019-02-10T08:36:35.918Z,98944.45
2019-02-10T08:39:27.961Z,98935.89
2019-02-10T08:42:08.637Z,98920.38
2019-02-10T08:44:40.125Z,98926.45
2019-02-10T08:47:23.221Z,98925.46
2019-02-10T08:49:57.802Z,98918.33
2019-02-10T08:52:32.073Z,98910.41
2019-02-10T08:55:02.423Z,98903.53
2019-02-10T08:57:31.086Z,98905.03
2019-02-10T08:59:59.939Z,98893.13
2019-02-10T09:02:28.491Z,98897.59
2019-02-10T09:04:57.105Z,98889.09
2019-02-10T09:07:25.698Z,98888.94
2019-02-10T09:09:54.254Z,98877.23
2019-02-10T09:12:22.826Z,98878.61
2019-02-10T09:14:51.382Z,98874.98
2019-02-10T09:17:19.954Z,98867.55
2019-02-10T09:19:48.536Z,98873.53
2019-02-10T09:22:17.087Z,98867.81
2019-02-10T09:24:46.278Z,98855.40
2019-02-10T09:27:14.789Z,98855.61
2019-02-10T09:29:43.333Z,98854.25
2019-02-10T09:32:11.767Z,98860.54
2019-02-10T09:34:40.323Z,98873.63
2019-02-10T09:37:08.877Z,98862.31
2019-02-10T09:39:37.390Z,98866.88
2019-02-10T09:42:06.005Z,98860.62
2019-02-10T09:44:34.622Z,98865.52
2019-02-10T09:47:03.156Z,98861.38
2019-02-10T09:49:31.654Z,98864.94
2019-02-10T09:52:00.201Z,98855.20
2019-02-10T09:54:28.797Z,98855.49
2019-02-10T09:56:57.442Z,98852.81
2019-02-10T09:59:26.052Z,98851.00
2019-02-10T10:01:54.661Z,98849.30
2019-02-10T10:04:23.143Z,98843.88
2019-02-10T10:06:51.788Z,98843.31
2019-02-10T10:09:20.364Z,98846.81
2019-02-10T10:11:48.917Z,98842.88
2019-02-10T10:14:19.745Z,98835.63
2019-02-10T10:16:48.469Z,98828.84
2019-02-10T10:19:17.086Z,98834.75
2019-02-10T10:21:45.642Z,98825.97
2019-02-10T10:24:14.217Z,98825.97
2019-02-10T10:26:42.819Z,98827.53
2019-02-10T10:29:11.512Z,98825.51
2019-02-10T10:31:40.313Z,98830.34
2019-02-10T10:34:08.962Z,98829.92
2019-02-10T10:36:37.544Z,98829.89
2019-02-10T10:39:06.470Z,98824.58
2019-02-10T10:41:34.971Z,98819.11
2019-02-10T10:44:03.578Z,98808.67
2019-02-10T10:46:32.302Z,98805.70
2019-02-10T10:49:00.780Z,98806.48
2019-02-10T10:51:29.289Z,98818.69
2019-02-10T10:53:57.912Z,98823.48
2019-02-10T10:56:26.499Z,98824.91
2019-02-10T10:58:55.165Z,98825.51
2019-02-10T11:01:25.275Z,98824.57
2019-02-10T11:03:54.155Z,98824.68
2019-02-10T11:06:22.671Z,98824.68
2019-02-10T11:08:51.245Z,98811.34
2019-02-10T11:11:19.830Z,98808.09
2019-02-10T11:13:48.430Z,98801.04
2019-02-10T11:16:17.050Z,98813.38
2019-02-10T11:18:45.535Z,98816.70
2019-02-10T11:21:14.086Z,98808.91
2019-02-10T11:23:42.682Z,98809.41
2019-02-10T11:26:11.249Z,98801.59
2019-02-10T11:28:39.773Z,98798.65
2019-02-10T11:31:08.410Z,98810.81
2019-02-10T11:33:37.086Z,98797.66
2019-02-10T11:36:05.609Z,98803.73
2019-02-10T11:38:34.048Z,98796.66
2019-02-10T11:41:02.735Z,98793.58
2019-02-10T11:43:31.367Z,98802.29
2019-02-10T11:45:59.878Z,98795.17
2019-02-10T11:48:28.500Z,98795.52
2019-02-10T11:50:57.079Z,98795.53
2019-02-10T11:53:25.700Z,98801.53
2019-02-10T11:55:54.289Z,98806.38
2019-02-10T11:58:22.903Z,98799.23
2019-02-10T12:00:51.493Z,98806.88
2019-02-10T12:03:20.200Z,98813.00
2019-02-10T12:05:48.820Z,98814.20
2019-02-10T12:08:17.404Z,98816.03
2019-02-10T12:10:46.203Z,98812.41
2019-02-10T12:13:14.788Z,98819.11
2019-02-10T12:15:43.475Z,98831.06
2019-02-10T12:18:12.136Z,98834.68
2019-02-10T12:20:41.719Z,98826.53
2019-02-10T12:23:10.364Z,98830.25
2019-02-10T12:25:39.838Z,98829.75
2019-02-10T12:28:08.539Z,98832.38
2019-02-10T12:30:37.148Z,98829.97
2019-02-10T12:33:05.730Z,98831.80
2019-02-10T12:35:34.374Z,98835.02
2019-02-10T12:38:03.033Z,98835.83
2019-02-10T12:40:31.644Z,98837.95
2019-02-10T12:43:00.288Z,98837.02
2019-02-10T12:45:28.937Z,98837.32
2019-02-10T12:47:57.457Z,98839.41
2019-02-10T12:50:25.997Z,98841.87
2019-02-10T12:52:54.673Z,98840.86
2019-02-10T12:55:23.208Z,98836.74
2019-02-10T12:57:51.884Z,98847.19
2019-02-10T13:00:20.850Z,98847.27
2019-02-10T13:02:49.543Z,98840.47
2019-02-10T13:05:18.475Z,98847.29
2019-02-10T13:10:34.686Z,98843.32
2019-02-10T13:13:03.194Z,98840.05
2019-02-10T13:15:31.807Z,98848.12
2019-02-10T13:18:00.430Z,98845.23
2019-02-10T13:20:28.987Z,98845.84
2019-02-10T13:22:57.618Z,98863.55
2019-02-10T13:25:26.203Z,98852.91
2019-02-10T13:27:54.830Z,98853.95
2019-02-10T13:30:23.474Z,98855.98
2019-02-10T13:32:51.985Z,98851.80
2019-02-10T13:35:20.686Z,98845.08
2019-02-10T13:37:49.213Z,98849.47
2019-02-10T13:40:19.708Z,98856.88
2019-02-10T13:42:48.392Z,98853.64
2019-02-10T13:45:16.967Z,98857.95
2019-02-10T13:47:45.509Z,98856.02
2019-02-10T13:50:20.525Z,98847.34
2019-02-10T13:52:49.231Z,98843.94
2019-02-10T13:55:17.958Z,98841.94
2019-02-10T13:57:46.611Z,98841.03
2019-02-10T14:00:22.781Z,98855.42
2019-02-10T14:02:51.882Z,98844.51
2019-02-10T14:05:20.564Z,98845.56
2019-02-10T14:07:50.817Z,98849.16
2019-02-10T14:10:25.413Z,98854.77
2019-02-10T14:12:49.835Z,98842.02
2019-02-10T14:15:19.460Z,98851.34
2019-02-10T14:17:48.160Z,98856.80
2019-02-10T14:20:20.396Z,98860.27
2019-02-10T14:22:49.014Z,98854.64
2019-02-10T14:25:17.572Z,98854.64
2019-02-10T14:27:46.187Z,98857.39
2019-02-10T14:30:19.838Z,98854.78
2019-02-10T14:32:51.533Z,98867.23
2019-02-10T14:35:20.158Z,98862.38
2019-02-10T14:37:49.057Z,98870.04
2019-02-10T14:40:17.679Z,98864.16
2019-02-10T14:42:46.485Z,98867.63
2019-02-10T14:45:16.041Z,98871.27
2019-02-10T14:47:44.631Z,98871.52
2019-02-10T14:50:17.771Z,98884.28
2019-02-10T14:52:46.443Z,98884.28
2019-02-10T14:55:15.019Z,98873.67
2019-02-10T14:57:43.624Z,98879.89
2019-02-10T15:00:16.315Z,98870.17
2019-02-10T15:02:44.933Z,98877.03
2019-02-10T15:05:13.520Z,98872.42
2019-02-10T15:07:42.182Z,98863.13
2019-02-10T15:10:13.392Z,98873.16
2019-02-10T15:12:42.038Z,98876.00
2019-02-10T15:15:11.518Z,98884.20
2019-02-10T15:17:40.127Z,98880.48
2019-02-10T15:20:10.483Z,98892.91
2019-02-10T15:22:39.179Z,98890.91
2019-02-10T15:25:12.255Z,98900.55
2019-02-10T15:27:41.969Z,98895.49
2019-02-10T15:30:17.545Z,98897.38
2019-02-10T15:32:46.144Z,98901.44
2019-02-10T15:35:14.728Z,98911.48
2019-02-10T15:37:43.308Z,98912.08
2019-02-10T15:40:12.897Z,98907.66
2019-02-10T15:42:41.490Z,98908.92
2019-02-10T15:45:11.997Z,98904.47
2019-02-10T15:47:40.524Z,98898.84
2019-02-10T15:50:11.200Z,98901.90
2019-02-10T15:52:39.779Z,98903.61
2019-02-10T15:55:10.764Z,98909.69
2019-02-10T15:57:39.378Z,98916.95
2019-02-10T16:00:20.101Z,98928.84
2019-02-10T16:02:48.683Z,98925.46
2019-02-10T16:05:17.372Z,98923.19
2019-02-10T16:07:45.955Z,98929.06
2019-02-10T16:10:14.492Z,98925.06
2019-02-10T16:12:43.118Z,98926.06
2019-02-10T16:15:12.619Z,98933.73
2019-02-10T16:17:41.207Z,98939.36
2019-02-10T16:20:14.217Z,98941.67
2019-02-10T16:22:42.931Z,98950.45
2019-02-10T16:25:11.580Z,98950.42
2019-02-10T16:27:42.755Z,98971.34
2019-02-10T16:30:16.112Z,98977.02
2019-02-10T16:32:49.949Z,98979.96
2019-02-10T16:35:15.117Z,98994.04
2019-02-10T16:37:43.742Z,98995.31
2019-02-10T16:40:15.244Z,98992.39
2019-02-10T16:42:43.831Z,99027.28
2019-02-10T16:45:13.242Z,99024.00
2019-02-10T16:47:42.148Z,99041.19
2019-02-10T16:50:13.459Z,99031.10
2019-02-10T16:52:42.108Z,99033.37
2019-02-10T16:55:16.658Z,99037.62
2019-02-10T16:57:45.252Z,99038.30
2019-02-10T17:00:15.265Z,99042.67
2019-02-10T17:02:43.847Z,99047.23
2019-02-10T17:05:12.859Z,99050.14
2019-02-10T17:07:41.424Z,99060.70
2019-02-10T17:10:14.684Z,99056.59
2019-02-10T17:12:43.263Z,99057.16
2019-02-10T17:15:12.844Z,99062.80
2019-02-10T17:17:41.477Z,99066.08
2019-02-10T17:20:13.515Z,99075.75
2019-02-10T17:22:42.123Z,99079.27
2019-02-10T17:25:27.849Z,99082.65
2019-02-10T17:27:56.407Z,99087.63
2019-02-10T17:30:24.993Z,99091.22
2019-02-10T17:32:53.581Z,99093.91
2019-02-10T17:35:22.199Z,99103.25
2019-02-10T17:37:50.815Z,99106.27
2019-02-10T17:40:45.051Z,99121.80
2019-02-10T17:43:13.585Z,99115.91
2019-02-10T17:45:42.180Z,99126.91
2019-02-10T17:48:10.742Z,99129.23
2019-02-10T17:50:39.225Z,99137.32
2019-02-10T17:53:07.836Z,99146.13
2019-02-10T17:55:36.345Z,99153.74
2019-02-10T17:58:04.931Z,99164.84
2019-02-10T18:00:35.115Z,99173.47
2019-02-10T18:03:03.796Z,99178.67
2019-02-10T18:05:32.493Z,99185.92
2019-02-10T18:08:01.065Z,99196.34
2019-02-10T18:10:29.641Z,99191.67
2019-02-10T18:12:58.222Z,99199.84
2019-02-10T18:15:28.702Z,99209.70
2019-02-10T18:18:10.900Z,99220.44
2019-02-10T18:20:46.979Z,99215.13
2019-02-10T18:23:33.034Z,99214.73
2019-02-10T18:26:12.367Z,99223.09
2019-02-10T18:28:45.743Z,99225.29
2019-02-10T18:31:28.193Z,99239.72
2019-02-10T18:34:07.176Z,99239.86
2019-02-10T18:36:46.137Z,99243.91
2019-02-10T18:39:32.427Z,99246.73
2019-02-10T18:42:02.637Z,99261.13
2019-02-10T18:44:47.883Z,99278.41
2019-02-10T18:47:18.168Z,99273.28
2019-02-10T18:49:48.416Z,99288.09
2019-02-10T18:52:34.551Z,99299.97
2019-02-10T18:55:04.889Z,99300.34
2019-02-10T18:57:37.812Z,99316.93
2019-02-10T19:00:15.244Z,99333.97
2019-02-10T19:02:48.094Z,99340.94
2019-02-10T19:05:18.326Z,99343.35
2019-02-10T19:08:00.514Z,99350.86
2019-02-10T19:10:42.857Z,99357.02
2019-02-10T19:13:31.145Z,99370.53
2019-02-10T19:16:03.863Z,99378.87
2019-02-10T19:18:36.933Z,99380.75
2019-02-10T19:21:07.190Z,99388.46
2019-02-10T19:23:52.488Z,99409.16
2019-02-10T19:26:22.752Z,99406.20
2019-02-10T19:29:09.287Z,99407.03
2019-02-10T19:31:57.405Z,99408.52
2019-02-10T19:34:33.338Z,99425.32
2019-02-10T19:37:19.414Z,99439.43
2019-02-10T19:39:49.578Z,99436.97
2019-02-10T19:42:35.614Z,99453.03
2019-02-10T19:45:22.442Z,99452.48
2019-02-10T19:48:09.985Z,99458.30
2019-02-10T19:50:49.093Z,99476.36
2019-02-10T19:53:19.280Z,99484.81
2019-02-10T19:55:50.614Z,99491.73
2019-02-10T19:58:37.057Z,99496.50
2019-02-10T20:01:25.234Z,99505.30
2019-02-10T20:03:55.406Z,99512.33
2019-02-10T20:06:31.392Z,99522.27
2019-02-10T20:09:07.343Z,99522.39
2019-02-10T20:11:37.519Z,99532.91
2019-02-10T20:14:19.631Z,99547.26
2019-02-10T20:16:55.861Z,99561.02
2019-02-10T20:19:26.036Z,99569.99
2019-02-10T20:21:59.011Z,99577.82
2019-02-10T20:24:29.277Z,99587.45
2019-02-10T20:27:08.272Z,99592.53
2019-02-10T20:29:38.357Z,99594.73
2019-02-10T20:32:12.634Z,99599.77
2019-02-10T20:34:54.589Z,99611.66
2019-02-10T20:37:27.584Z,99619.66
2019-02-10T20:40:03.575Z,99636.20
2019-02-10T20:42:36.872Z,99643.30
2019-02-10T20:45:07.850Z,99644.77
2019-02-10T20:47:38.122Z,99654.45
2019-02-10T20:50:19.395Z,99666.42
2019-02-10T20:52:55.577Z,99670.39
2019-02-10T20:55:25.692Z,99684.56
2019-02-10T20:58:02.070Z,99693.03
2019-02-10T21:00:35.175Z,99699.27
2019-02-10T21:03:17.131Z,99707.06
2019-02-10T21:05:47.433Z,99720.00
2019-02-10T21:08:17.684Z,99733.55
2019-02-10T21:10:59.947Z,99739.75
2019-02-10T21:13:30.113Z,99750.56
2019-02-10T21:16:03.316Z,99773.36
2019-02-10T21:18:45.549Z,99772.61
2019-02-10T21:21:15.712Z,99787.52
2019-02-10T21:23:45.817Z,99799.86
2019-02-10T21:26:18.745Z,99800.86
2019-02-10T21:29:00.984Z,99812.50
2019-02-10T21:31:31.278Z,99818.97
2019-02-10T21:34:07.447Z,99846.88
2019-02-10T21:36:40.602Z,99859.08
2019-02-10T21:39:10.831Z,99868.52
2019-02-10T21:41:41.137Z,99881.95
2019-02-10T21:44:23.343Z,99894.44
2019-02-10T21:47:02.702Z,99908.53
2019-02-10T21:49:31.257Z,99916.53
2019-02-10T21:51:59.877Z,99932.58
2019-02-10T21:54:28.500Z,99948.37
2019-02-10T21:56:57.181Z,99962.63
2019-02-10T21:59:25.768Z,99967.50
2019-02-10T22:01:54.434Z,99968.55
2019-02-10T22:07:04.647Z,99983.45
2019-02-10T22:09:33.168Z,99989.25
2019-02-10T22:12:01.787Z,99996.91
2019-02-10T22:14:30.293Z,100001.28
2019-02-10T22:16:58.936Z,100011.48
2019-02-10T22:19:27.491Z,100022.00
2019-02-10T22:21:56.188Z,100037.23
2019-02-10T22:24:24.783Z,100038.43
2019-02-10T22:26:53.335Z,100054.63
2019-02-10T22:29:21.935Z,100052.70
2019-02-10T22:31:50.483Z,100056.83
2019-02-10T22:34:19.081Z,100067.03
2019-02-10T22:36:47.695Z,100080.75
2019-02-10T22:39:19.850Z,100079.09
2019-02-10T22:41:48.464Z,100096.39
2019-02-10T22:44:17.161Z,100099.73
2019-02-10T22:46:45.699Z,100113.02
2019-02-10T22:49:14.245Z,100106.75
2019-02-10T22:51:43.322Z,100122.33
2019-02-10T22:54:11.878Z,100123.86
2019-02-10T22:56:40.455Z,100140.55
2019-02-10T22:59:08.970Z,100150.51
2019-02-10T23:01:37.646Z,100156.25
2019-02-10T23:04:06.293Z,100168.80
2019-02-10T23:06:34.965Z,100169.51
2019-02-10T23:09:06.526Z,100183.27
2019-02-10T23:11:35.095Z,100198.38
2019-02-10T23:14:03.672Z,100208.56
2019-02-10T23:16:32.248Z,100209.69
2019-02-10T23:19:00.788Z,100216.17
2019-02-10T23:21:29.333Z,100231.91
2019-02-10T23:23:57.988Z,100234.61
2019-02-10T23:26:26.601Z,100246.87
2019-02-10T23:28:55.174Z,100248.28
2019-02-10T23:31:23.767Z,100252.22
2019-02-10T23:33:52.391Z,100260.29
2019-02-10T23:36:20.921Z,100265.51
2019-02-10T23:38:49.448Z,100273.12
2019-02-10T23:41:18.006Z,100277.87
2019-02-10T23:43:46.503Z,100286.15
2019-02-10T23:46:15.081Z,100297.44
2019-02-10T23:48:43.660Z,100299.54
2019-02-10T23:51:12.241Z,100299.95
2019-02-10T23:53:40.886Z,100310.87
2019-02-10T23:56:09.486Z,100320.14
2019-02-10T23:58:38.031Z,100324.44
